Time;durP1;ratioP1;P1;durP2;ratioP2;P2;SDS_P1;SDS_P2;PMS_P1;PMS_P2;Temp;Humidity;BMP_temperature;BMP_pressure;BME280_temperature;BME280_humidity;BME280_pressure;Samples;Min_cycle;Max_cycle;Signal;HPM_P1;HPM_P2
2023/01/17 00:02:10;;;;;;;1.07;0.50;;;3.70;99.90;;;;;;5052511;28;20211;-79
2023/01/17 00:10:23;;;;;;;1.88;0.60;;;3.50;99.90;;;;;;5053523;28;20189;-78
2023/01/17 00:12:53;;;;;;;0.70;0.40;;;3.50;99.90;;;;;;5051386;28;20227;-78
2023/01/17 00:15:22;;;;;;;0.70;0.47;;;3.50;99.90;;;;;;5052243;28;20433;-79
2023/01/17 00:17:48;;;;;;;0.70;0.50;;;3.40;99.90;;;;;;5051367;28;20210;-79
2023/01/17 00:26:03;;;;;;;0.63;0.40;;;3.40;99.90;;;;;;5051591;28;20185;-78
2023/01/17 01:35:28;;;;;;;0.70;0.40;;;2.70;99.90;;;;;;5050746;28;20230;-78
2023/01/17 01:37:55;;;;;;;0.90;0.50;;;2.50;99.90;;;;;;5048898;28;20300;-77
2023/01/17 01:40:20;;;;;;;0.70;0.43;;;2.30;99.90;;;;;;5048556;28;20740;-77
2023/01/17 01:42:52;;;;;;;0.90;0.40;;;2.30;99.90;;;;;;5048329;28;20195;-78
2023/01/17 01:45:30;;;;;;;0.60;0.50;;;2.30;99.90;;;;;;5049677;28;20419;-78
2023/01/17 01:48:24;;;;;;;0.63;0.40;;;2.20;99.90;;;;;;5049653;28;20179;-78
2023/01/17 01:50:50;;;;;;;0.60;0.50;;;2.20;99.90;;;;;;5049540;28;20205;-77
2023/01/17 01:53:19;;;;;;;0.60;0.40;;;2.10;99.90;;;;;;5049605;28;20554;-77
2023/01/17 01:55:48;;;;;;;0.70;0.40;;;2.10;99.90;;;;;;5049791;28;20210;-78
2023/01/17 01:58:24;;;;;;;0.60;0.45;;;2.10;99.90;;;;;;5049760;28;20180;-79
2023/01/17 02:00:50;;;;;;;0.68;0.57;;;2.10;99.90;;;;;;5031466;28;20220;-77
2023/01/17 02:03:20;;;;;;;2.17;0.50;;;2.10;99.90;;;;;;5048008;28;20274;-77
2023/01/17 02:05:46;;;;;;;1.00;0.50;;;2.10;99.90;;;;;;5048365;28;20268;-77
2023/01/17 02:08:16;;;;;;;0.70;0.60;;;2.10;99.90;;;;;;5048074;28;20191;-77
2023/01/17 02:10:43;;;;;;;0.60;0.45;;;2.10;99.90;;;;;;5049460;28;20673;-78
2023/01/17 02:13:09;;;;;;;2.17;0.55;;;2.10;99.90;;;;;;5049757;28;20863;-78
2023/01/17 02:15:48;;;;;;;1.67;0.45;;;2.00;99.90;;;;;;5047311;28;20219;-78
2023/01/17 02:19:12;;;;;;;0.80;0.50;;;2.20;99.90;;;;;;5047382;28;20621;-78
2023/01/17 02:21:49;;;;;;;0.70;0.50;;;2.10;99.90;;;;;;5006407;28;20368;-78
2023/01/17 02:25:02;;;;;;;0.70;0.50;;;2.10;99.90;;;;;;5039415;28;20187;-76
2023/01/17 02:27:57;;;;;;;1.45;0.60;;;2.20;99.90;;;;;;5048950;28;20645;-76
2023/01/17 02:30:32;;;;;;;0.70;0.60;;;2.20;99.90;;;;;;5050803;28;20712;-76
2023/01/17 02:33:19;;;;;;;0.90;0.77;;;2.20;99.90;;;;;;5051069;28;20184;-76
2023/01/17 02:35:47;;;;;;;0.70;0.50;;;2.20;99.90;;;;;;5050860;28;20204;-77
2023/01/17 02:38:57;;;;;;;0.70;0.60;;;2.20;99.90;;;;;;5052322;28;20247;-77
2023/01/17 02:41:36;;;;;;;2.00;0.52;;;2.10;99.90;;;;;;4993581;28;20213;-76
2023/01/17 02:44:03;;;;;;;0.90;0.60;;;2.00;99.90;;;;;;4993970;28;20180;-77
2023/01/17 02:46:28;;;;;;;0.90;0.73;;;2.10;99.90;;;;;;5026844;28;20220;-77
2023/01/17 02:48:56;;;;;;;0.50;0.30;;;2.10;99.90;;;;;;5051115;28;20215;-77
2023/01/17 02:51:38;;;;;;;0.80;0.57;;;2.10;99.90;;;;;;5051274;28;20196;-77
2023/01/17 02:54:19;;;;;;;1.13;0.70;;;2.00;99.90;;;;;;5052623;28;20169;-78
2023/01/17 02:57:09;;;;;;;1.55;0.70;;;2.10;99.90;;;;;;5052269;28;20678;-77
2023/01/17 02:59:48;;;;;;;1.48;0.60;;;2.20;99.90;;;;;;5052352;28;20564;-77
2023/01/17 03:02:45;;;;;;;0.88;0.50;;;2.30;99.90;;;;;;5051041;28;20227;-77
2023/01/17 03:05:19;;;;;;;0.60;0.40;;;2.40;99.90;;;;;;5020427;28;20193;-76
2023/01/17 03:07:47;;;;;;;1.15;0.50;;;2.40;99.90;;;;;;5052523;28;20178;-76
2023/01/17 03:10:15;;;;;;;0.70;0.50;;;2.30;99.90;;;;;;5051259;28;20212;-76
2023/01/17 03:12:41;;;;;;;0.90;0.50;;;2.40;99.90;;;;;;5052584;28;20285;-76
2023/01/17 03:15:14;;;;;;;1.35;0.40;;;2.40;99.90;;;;;;5051044;28;20208;-78
2023/01/17 03:17:45;;;;;;;0.75;0.60;;;2.40;99.90;;;;;;5051021;28;20350;-78
2023/01/17 03:20:11;;;;;;;0.60;0.50;;;2.40;99.90;;;;;;5052350;28;20248;-77
2023/01/17 03:22:37;;;;;;;1.05;0.60;;;2.40;99.90;;;;;;5052551;28;20196;-78
2023/01/17 03:25:03;;;;;;;1.00;0.50;;;2.50;99.90;;;;;;5034235;28;20188;-77
2023/01/17 03:27:29;;;;;;;1.65;0.70;;;2.50;99.90;;;;;;5052052;28;20209;-78
2023/01/17 03:29:55;;;;;;;1.97;0.70;;;2.60;99.90;;;;;;5052078;28;20196;-78
2023/01/17 03:32:20;;;;;;;0.70;0.50;;;2.60;99.90;;;;;;5050713;28;20188;-78
2023/01/17 03:34:46;;;;;;;0.70;0.50;;;2.70;99.90;;;;;;5051885;28;20189;-79
2023/01/17 03:37:11;;;;;;;2.53;0.90;;;2.60;99.90;;;;;;5050446;28;20517;-77
2023/01/17 03:39:37;;;;;;;0.77;0.53;;;2.70;99.90;;;;;;5050925;28;20179;-78
2023/01/17 03:42:02;;;;;;;0.80;0.40;;;2.70;99.90;;;;;;5034403;28;20234;-78
2023/01/17 03:44:28;;;;;;;0.60;0.50;;;2.70;99.90;;;;;;5050636;28;20207;-77
2023/01/17 03:46:53;;;;;;;1.13;0.40;;;2.70;99.90;;;;;;5052360;28;20221;-77
2023/01/17 03:49:19;;;;;;;2.00;0.70;;;2.80;99.90;;;;;;5052870;28;20204;-78
2023/01/17 03:51:45;;;;;;;0.80;0.40;;;2.70;99.90;;;;;;5051702;28;20314;-79
2023/01/17 03:54:10;;;;;;;0.63;0.50;;;2.80;99.90;;;;;;5049980;28;20185;-77
2023/01/17 03:56:36;;;;;;;1.47;1.00;;;2.80;99.90;;;;;;5051342;28;20296;-80
2023/01/17 03:59:02;;;;;;;4.73;0.50;;;2.80;99.90;;;;;;5033292;28;20202;-79
2023/01/17 04:01:27;;;;;;;1.00;0.50;;;2.90;99.90;;;;;;5050365;28;20209;-80
2023/01/17 04:03:54;;;;;;;0.60;0.30;;;2.80;99.90;;;;;;5050465;28;20212;-80
2023/01/17 04:06:19;;;;;;;0.60;0.40;;;2.90;99.90;;;;;;5051276;28;20207;-80
2023/01/17 04:08:45;;;;;;;0.80;0.50;;;3.00;99.90;;;;;;5051103;28;20618;-78
2023/01/17 04:11:11;;;;;;;1.63;0.53;;;2.90;99.90;;;;;;5032824;28;20298;-80
2023/01/17 04:13:36;;;;;;;0.70;0.60;;;2.90;99.90;;;;;;5049642;28;20265;-80
2023/01/17 04:16:02;;;;;;;1.27;0.70;;;2.90;99.90;;;;;;5032948;28;20263;-78
2023/01/17 04:18:28;;;;;;;2.83;0.70;;;2.90;99.90;;;;;;5051135;28;20188;-80
2023/01/17 04:20:54;;;;;;;2.10;0.40;;;2.90;99.90;;;;;;5050900;28;20847;-80
2023/01/17 04:23:19;;;;;;;1.20;0.40;;;2.90;99.90;;;;;;5032859;28;20236;-80
2023/01/17 04:25:45;;;;;;;0.70;0.30;;;3.00;99.90;;;;;;5032770;28;20708;-79
2023/01/17 04:28:11;;;;;;;0.60;0.40;;;3.00;99.90;;;;;;5049235;28;20191;-78
2023/01/17 04:30:36;;;;;;;0.60;0.43;;;3.00;99.90;;;;;;5050885;28;20204;-78
2023/01/17 04:33:02;;;;;;;1.33;0.57;;;3.00;99.90;;;;;;5049202;28;20201;-79
2023/01/17 04:35:29;;;;;;;1.25;0.50;;;3.00;99.90;;;;;;5050443;28;20829;-78
2023/01/17 04:37:55;;;;;;;0.60;0.30;;;3.00;99.90;;;;;;5050370;28;20188;-77
2023/01/17 04:40:21;;;;;;;0.90;0.53;;;3.00;99.90;;;;;;5050202;28;20833;-77
2023/01/17 04:42:47;;;;;;;2.37;0.40;;;3.00;99.90;;;;;;5050227;28;20618;-78
2023/01/17 04:45:13;;;;;;;0.80;0.40;;;2.90;99.90;;;;;;5050163;28;20515;-77
2023/01/17 04:47:39;;;;;;;0.80;0.43;;;2.90;99.90;;;;;;5048358;28;20230;-77
2023/01/17 04:50:06;;;;;;;1.93;1.17;;;2.90;99.90;;;;;;5049985;28;20215;-77
2023/01/17 04:52:31;;;;;;;1.45;0.65;;;2.90;99.90;;;;;;5048994;28;20563;-78
2023/01/17 04:54:57;;;;;;;1.10;0.80;;;2.90;99.90;;;;;;5051178;28;20653;-80
2023/01/17 04:57:23;;;;;;;1.07;0.70;;;2.90;99.90;;;;;;5051909;28;20264;-79
2023/01/17 04:59:49;;;;;;;2.55;0.60;;;2.90;99.90;;;;;;5053013;28;20192;-79
2023/01/17 05:02:15;;;;;;;0.70;0.50;;;2.90;99.90;;;;;;5051340;28;20303;-79
2023/01/17 05:04:40;;;;;;;4.40;0.50;;;2.90;99.90;;;;;;5050534;28;20184;-79
2023/01/17 05:07:07;;;;;;;0.80;0.50;;;2.90;99.90;;;;;;5051093;28;20234;-79
2023/01/17 05:09:32;;;;;;;2.80;1.15;;;2.90;99.90;;;;;;5052024;28;20272;-79
2023/01/17 05:11:58;;;;;;;1.93;0.60;;;3.00;99.90;;;;;;5051578;28;20297;-79
2023/01/17 05:14:25;;;;;;;1.10;0.90;;;3.00;99.90;;;;;;5051962;28;20249;-78
2023/01/17 05:16:57;;;;;;;0.70;0.65;;;3.00;99.90;;;;;;5050028;28;20210;-78
2023/01/17 05:19:24;;;;;;;1.80;1.40;;;3.00;99.90;;;;;;5049640;28;20186;-78
2023/01/17 05:21:50;;;;;;;2.17;0.85;;;2.90;99.90;;;;;;5051823;28;20220;-80
2023/01/17 05:24:16;;;;;;;1.93;0.50;;;2.80;99.90;;;;;;5049677;28;20274;-78
2023/01/17 05:26:42;;;;;;;0.93;0.70;;;2.80;99.90;;;;;;5032477;28;20281;-78
2023/01/17 05:29:08;;;;;;;3.10;2.00;;;2.80;99.90;;;;;;5050272;28;20602;-78
2023/01/17 05:31:34;;;;;;;2.40;1.58;;;2.80;99.90;;;;;;5050202;28;20223;-78
2023/01/17 05:33:59;;;;;;;1.00;0.83;;;3.00;99.90;;;;;;5049268;28;20272;-77
2023/01/17 05:36:25;;;;;;;1.37;0.60;;;2.90;99.90;;;;;;5030752;28;20256;-77
2023/01/17 05:38:51;;;;;;;2.17;0.70;;;2.90;99.90;;;;;;5047629;28;20673;-77
2023/01/17 05:41:16;;;;;;;0.80;0.80;;;2.80;99.90;;;;;;5047502;28;20242;-77
2023/01/17 05:43:42;;;;;;;1.37;0.90;;;2.90;99.90;;;;;;5046542;28;20189;-76
2023/01/17 05:46:07;;;;;;;1.00;0.90;;;2.90;99.90;;;;;;5046830;28;20724;-77
2023/01/17 05:48:33;;;;;;;2.20;0.90;;;2.90;99.90;;;;;;5046791;28;20196;-77
2023/01/17 05:51:00;;;;;;;0.90;0.80;;;3.10;99.90;;;;;;5029929;28;20486;-77
2023/01/17 05:53:25;;;;;;;2.55;0.70;;;2.90;99.90;;;;;;5048149;28;20181;-76
2023/01/17 05:55:51;;;;;;;1.30;0.83;;;2.80;99.90;;;;;;5048177;28;20213;-77
2023/01/17 05:58:20;;;;;;;1.97;0.83;;;2.80;99.90;;;;;;5046524;28;20918;-77
2023/01/17 06:00:46;;;;;;;1.10;0.60;;;2.80;99.90;;;;;;5048943;28;20224;-77
2023/01/17 06:03:12;;;;;;;1.10;0.88;;;2.80;99.90;;;;;;5049692;28;20189;-77
2023/01/17 06:05:38;;;;;;;0.70;0.50;;;2.90;99.90;;;;;;5052772;28;20557;-76
2023/01/17 06:08:04;;;;;;;0.90;0.43;;;2.80;99.90;;;;;;5051208;28;20191;-77
2023/01/17 06:10:29;;;;;;;0.87;0.63;;;2.80;99.90;;;;;;5052386;28;20202;-77
2023/01/17 06:13:04;;;;;;;1.27;0.93;;;2.80;99.90;;;;;;5052669;28;20504;-77
2023/01/17 06:15:30;;;;;;;1.75;1.25;;;2.70;99.90;;;;;;5052366;28;20506;-75
2023/01/17 06:17:55;;;;;;;5.17;1.37;;;2.70;99.90;;;;;;5051228;28;20188;-77
2023/01/17 06:20:21;;;;;;;1.53;1.37;;;2.70;99.90;;;;;;5052137;28;20233;-77
2023/01/17 06:22:46;;;;;;;1.47;1.27;;;2.70;99.90;;;;;;5050555;28;20180;-77
2023/01/17 06:25:12;;;;;;;7.13;1.20;;;2.60;99.90;;;;;;5052152;28;20319;-78
2023/01/17 06:27:38;;;;;;;1.07;0.77;;;2.50;99.90;;;;;;5050510;28;20192;-77
2023/01/17 06:30:04;;;;;;;1.13;0.50;;;2.50;99.90;;;;;;5051769;28;20212;-77
2023/01/17 06:32:30;;;;;;;1.15;0.68;;;2.50;99.90;;;;;;5052012;28;20235;-76
2023/01/17 06:34:55;;;;;;;1.23;0.50;;;2.50;99.90;;;;;;5051098;28;20650;-76
2023/01/17 06:37:21;;;;;;;0.87;0.50;;;2.50;99.90;;;;;;5052258;28;20177;-77
2023/01/17 06:39:47;;;;;;;3.33;0.73;;;2.50;99.90;;;;;;5052462;28;20187;-77
2023/01/17 06:42:13;;;;;;;8.13;0.40;;;2.40;99.90;;;;;;5050740;28;20673;-77
2023/01/17 06:44:39;;;;;;;0.70;0.50;;;2.40;99.90;;;;;;5052114;28;20204;-77
2023/01/17 06:47:04;;;;;;;1.30;1.20;;;2.50;99.90;;;;;;5050556;28;20197;-77
2023/01/17 06:49:30;;;;;;;3.47;3.17;;;2.50;99.90;;;;;;5050483;28;20188;-77
2023/01/17 06:51:55;;;;;;;1.13;0.90;;;2.40;99.90;;;;;;5050580;28;20211;-76
2023/01/17 06:54:21;;;;;;;0.90;0.77;;;2.30;99.90;;;;;;5051467;28;20193;-76
2023/01/17 06:56:47;;;;;;;1.80;1.60;;;2.20;99.90;;;;;;5051203;28;20591;-77
2023/01/17 06:59:12;;;;;;;1.33;0.97;;;2.20;99.90;;;;;;5049704;28;20187;-78
2023/01/17 07:01:38;;;;;;;0.83;0.50;;;2.10;99.90;;;;;;5051355;28;20204;-77
2023/01/17 07:04:04;;;;;;;2.05;0.52;;;1.90;99.90;;;;;;5049903;28;20182;-78
2023/01/17 07:06:30;;;;;;;1.23;0.57;;;1.90;99.90;;;;;;5050877;28;20195;-76
2023/01/17 07:08:55;;;;;;;0.70;0.40;;;1.90;99.90;;;;;;5050881;28;20482;-77
2023/01/17 07:11:21;;;;;;;0.70;0.60;;;1.90;99.90;;;;;;5051091;28;20219;-77
2023/01/17 07:13:47;;;;;;;2.25;0.50;;;2.00;99.90;;;;;;5049568;28;20200;-76
2023/01/17 07:16:13;;;;;;;2.00;0.60;;;2.10;99.90;;;;;;5049731;28;20209;-76
2023/01/17 07:18:38;;;;;;;2.03;1.00;;;2.10;99.90;;;;;;5049411;28;20279;-76
2023/01/17 07:21:10;;;;;;;1.60;0.63;;;2.20;99.90;;;;;;5050724;28;20213;-75
2023/01/17 07:23:36;;;;;;;0.60;0.43;;;2.20;99.90;;;;;;5051052;28;20178;-76
2023/01/17 07:26:01;;;;;;;0.70;0.40;;;2.20;99.90;;;;;;5048846;28;20207;-76
2023/01/17 07:28:27;;;;;;;4.03;0.57;;;2.30;99.90;;;;;;5050496;28;20690;-76
2023/01/17 07:30:53;;;;;;;2.03;0.50;;;2.20;99.90;;;;;;5050394;28;20204;-76
2023/01/17 07:33:19;;;;;;;1.77;1.23;;;2.20;99.90;;;;;;5050546;28;20184;-76
2023/01/17 07:35:45;;;;;;;1.20;1.10;;;2.20;99.90;;;;;;5050153;28;20474;-76
2023/01/17 07:38:16;;;;;;;1.10;1.00;;;2.30;99.90;;;;;;5049976;28;20756;-75
2023/01/17 07:40:42;;;;;;;1.45;0.82;;;2.30;99.90;;;;;;5049922;28;20623;-76
2023/01/17 07:43:14;;;;;;;3.17;1.20;;;2.30;99.90;;;;;;5048826;28;20197;-76
2023/01/17 07:45:50;;;;;;;1.92;1.75;;;2.30;99.90;;;;;;5048649;28;20224;-75
2023/01/17 07:48:20;;;;;;;1.75;1.63;;;2.30;99.90;;;;;;5049977;28;20663;-76
2023/01/17 07:50:57;;;;;;;0.80;0.70;;;2.30;99.90;;;;;;5049675;28;20236;-76
2023/01/17 07:53:25;;;;;;;1.20;0.70;;;2.20;99.90;;;;;;5049714;28;20183;-75
2023/01/17 07:55:50;;;;;;;1.50;0.80;;;2.20;99.90;;;;;;5049577;28;20209;-76
2023/01/17 07:58:16;;;;;;;1.20;0.70;;;2.20;99.90;;;;;;5049452;28;20186;-76
2023/01/17 08:00:43;;;;;;;0.70;0.70;;;2.20;99.90;;;;;;5049108;28;20706;-76
2023/01/17 08:03:12;;;;;;;1.65;0.88;;;2.30;99.90;;;;;;5048060;28;20272;-75
2023/01/17 08:05:39;;;;;;;1.33;0.82;;;2.50;99.90;;;;;;5049296;28;20193;-75
2023/01/17 08:08:05;;;;;;;3.45;1.00;;;2.50;99.90;;;;;;5049613;28;20209;-76
2023/01/17 08:10:30;;;;;;;2.80;0.50;;;2.60;99.90;;;;;;5049592;28;20717;-75
2023/01/17 08:12:56;;;;;;;1.10;0.80;;;2.70;99.90;;;;;;5050278;28;20193;-76
2023/01/17 08:15:22;;;;;;;4.83;1.10;;;2.60;99.90;;;;;;5031906;28;20296;-76
2023/01/17 08:17:52;;;;;;;1.85;1.00;;;2.70;99.90;;;;;;5031851;28;20191;-76
2023/01/17 08:20:19;;;;;;;3.70;0.90;;;3.10;99.90;;;;;;5049562;28;20273;-76
2023/01/17 08:22:45;;;;;;;2.35;1.42;;;3.50;99.90;;;;;;5049749;28;20177;-76
2023/01/17 08:25:11;;;;;;;2.30;2.20;;;3.90;99.90;;;;;;5049638;28;20596;-76
2023/01/17 08:27:37;;;;;;;2.65;2.17;;;4.10;99.90;;;;;;5049337;28;20719;-76
2023/01/17 08:30:04;;;;;;;1.80;1.70;;;4.20;99.90;;;;;;5049389;28;20187;-76
2023/01/17 08:32:30;;;;;;;3.60;2.75;;;4.20;99.90;;;;;;5049347;28;20264;-76
2023/01/17 08:34:56;;;;;;;2.40;2.20;;;4.20;99.90;;;;;;5049406;28;20265;-76
2023/01/17 08:37:22;;;;;;;2.33;2.13;;;4.30;99.90;;;;;;5049417;28;20434;-76
2023/01/17 08:39:47;;;;;;;6.83;2.60;;;4.80;99.90;;;;;;5047825;28;20237;-76
2023/01/17 08:42:13;;;;;;;3.00;2.20;;;5.30;99.90;;;;;;5030711;28;20453;-76
2023/01/17 08:44:39;;;;;;;2.70;2.07;;;6.30;99.90;;;;;;5047265;28;20683;-76
2023/01/17 08:47:04;;;;;;;2.00;1.47;;;7.20;96.30;;;;;;5047198;28;20194;-76
2023/01/17 08:49:30;;;;;;;1.47;1.10;;;7.90;92.70;;;;;;5048524;28;20187;-76
2023/01/17 08:51:56;;;;;;;2.50;1.60;;;8.00;86.80;;;;;;5048452;28;20199;-76
2023/01/17 08:54:22;;;;;;;1.30;1.20;;;8.30;86.50;;;;;;5046825;28;20188;-75
2023/01/17 08:56:48;;;;;;;0.87;0.70;;;8.50;85.70;;;;;;5046679;28;20209;-76
2023/01/17 08:59:14;;;;;;;0.80;0.67;;;8.50;82.10;;;;;;5046866;28;20208;-76
2023/01/17 09:01:40;;;;;;;1.83;1.57;;;8.40;82.00;;;;;;5048299;28;20535;-76
2023/01/17 09:04:09;;;;;;;1.70;1.00;;;8.70;82.00;;;;;;5048057;28;20287;-76
2023/01/17 09:06:36;;;;;;;2.10;1.10;;;8.90;81.60;;;;;;5046708;28;20446;-77
2023/01/17 09:09:04;;;;;;;2.03;0.97;;;9.10;81.30;;;;;;5048331;28;20432;-76
2023/01/17 09:11:29;;;;;;;1.90;1.30;;;9.30;79.10;;;;;;5048169;28;20464;-76
2023/01/17 09:13:55;;;;;;;2.60;1.27;;;9.10;79.30;;;;;;5046419;28;20932;-76
2023/01/17 09:16:20;;;;;;;1.93;1.50;;;9.20;79.10;;;;;;5047882;28;20212;-76
2023/01/17 09:18:46;;;;;;;3.00;2.43;;;9.10;78.70;;;;;;5046159;28;20278;-76
2023/01/17 09:21:14;;;;;;;2.70;2.50;;;9.20;77.80;;;;;;5047796;28;20200;-76
2023/01/17 09:23:40;;;;;;;1.00;0.80;;;9.00;78.30;;;;;;5047864;28;20685;-76
2023/01/17 09:26:08;;;;;;;1.10;0.80;;;8.40;77.10;;;;;;5046159;28;20423;-75
2023/01/17 09:28:39;;;;;;;1.57;0.63;;;8.10;78.30;;;;;;5047790;28;20444;-76
2023/01/17 09:31:08;;;;;;;1.37;0.83;;;7.50;78.70;;;;;;5047769;28;20441;-76
2023/01/17 09:33:34;;;;;;;1.10;0.70;;;7.10;81.10;;;;;;5047386;28;20414;-76
2023/01/17 09:36:03;;;;;;;1.67;0.70;;;6.80;82.80;;;;;;5045736;28;20548;-75
2023/01/17 09:38:29;;;;;;;1.20;1.10;;;6.50;83.70;;;;;;5045448;28;20943;-76
2023/01/17 09:40:54;;;;;;;3.20;1.10;;;6.60;85.60;;;;;;5047434;28;20462;-75
2023/01/17 09:43:29;;;;;;;1.27;0.60;;;6.70;84.30;;;;;;5045711;28;20513;-76
2023/01/17 09:45:55;;;;;;;0.80;0.63;;;7.10;82.50;;;;;;5047374;28;20417;-76
2023/01/17 09:48:33;;;;;;;3.07;0.87;;;7.60;85.80;;;;;;5047326;28;20425;-75
2023/01/17 09:51:13;;;;;;;0.90;0.70;;;9.20;83.30;;;;;;5047439;28;20346;-75
2023/01/17 09:53:40;;;;;;;0.80;0.60;;;10.80;76.50;;;;;;5047401;28;20411;-76
2023/01/17 09:56:08;;;;;;;1.40;0.60;;;10.50;72.40;;;;;;5047386;28;20470;-76
2023/01/17 09:59:00;;;;;;;2.23;0.90;;;10.60;72.90;;;;;;5047423;28;20411;-76
2023/01/17 10:01:34;;;;;;;2.50;0.80;;;10.40;70.30;;;;;;5045596;28;20450;-76
2023/01/17 10:04:36;;;;;;;2.20;0.63;;;11.00;71.30;;;;;;5047249;28;20467;-76
2023/01/17 10:07:16;;;;;;;1.30;0.70;;;11.10;70.80;;;;;;5047151;28;20427;-76
2023/01/17 10:10:10;;;;;;;0.80;0.60;;;12.60;71.30;;;;;;5047382;28;20893;-76
2023/01/17 10:13:14;;;;;;;1.93;0.80;;;13.00;69.00;;;;;;5047176;28;20438;-76
2023/01/17 10:15:55;;;;;;;1.47;0.80;;;15.30;61.80;;;;;;5040331;28;20503;-76
2023/01/17 10:18:24;;;;;;;1.00;0.80;;;15.80;57.00;;;;;;5047524;28;21007;-76
2023/01/17 10:21:21;;;;;;;1.07;0.70;;;16.00;54.20;;;;;;5047406;28;20682;-76
2023/01/17 10:23:59;;;;;;;1.23;0.60;;;15.60;52.50;;;;;;5047734;28;20830;-76
2023/01/17 10:26:25;;;;;;;1.93;0.80;;;14.60;51.30;;;;;;5047570;28;20907;-76
2023/01/17 10:28:55;;;;;;;1.07;0.63;;;14.30;52.20;;;;;;5030664;28;20951;-76
2023/01/17 10:31:22;;;;;;;2.03;0.80;;;14.00;53.50;;;;;;5047671;28;20442;-76
2023/01/17 10:33:56;;;;;;;1.20;0.80;;;14.50;53.10;;;;;;5047901;28;20420;-76
2023/01/17 10:36:27;;;;;;;2.20;1.40;;;15.20;51.80;;;;;;5046593;28;20457;-76
2023/01/17 10:39:01;;;;;;;1.60;0.80;;;15.60;50.10;;;;;;5046307;28;20479;-76
2023/01/17 10:41:35;;;;;;;1.33;1.00;;;15.90;49.60;;;;;;5046353;28;20448;-77
2023/01/17 10:44:42;;;;;;;1.30;0.97;;;15.90;49.90;;;;;;5047669;28;20506;-76
2023/01/17 10:47:11;;;;;;;2.27;1.10;;;14.70;48.60;;;;;;5047862;28;20415;-76
2023/01/17 10:49:43;;;;;;;1.40;0.90;;;12.90;49.60;;;;;;5049077;28;20441;-76
2023/01/17 10:52:30;;;;;;;2.80;0.80;;;12.30;51.30;;;;;;5051825;28;20477;-76
2023/01/17 10:55:19;;;;;;;2.80;1.20;;;11.30;53.00;;;;;;5051542;28;20412;-76
2023/01/17 10:57:47;;;;;;;1.57;0.97;;;10.40;55.20;;;;;;5051167;28;20515;-76
2023/01/17 11:00:32;;;;;;;1.40;0.90;;;9.50;57.20;;;;;;5049434;28;20824;-76
2023/01/17 11:02:59;;;;;;;3.53;0.97;;;9.30;58.90;;;;;;5051109;28;20451;-76
2023/01/17 11:05:30;;;;;;;1.87;1.40;;;8.80;59.30;;;;;;5050834;28;20528;-75
2023/01/17 11:08:10;;;;;;;1.10;0.80;;;9.00;59.40;;;;;;5051640;28;20435;-75
2023/01/17 11:10:38;;;;;;;1.07;0.80;;;8.90;61.60;;;;;;5050487;28;20436;-76
2023/01/17 11:13:37;;;;;;;2.20;1.00;;;9.10;60.80;;;;;;5049304;28;20446;-76
2023/01/17 11:16:08;;;;;;;1.57;0.90;;;9.00;60.10;;;;;;5050429;28;20896;-76
2023/01/17 11:18:37;;;;;;;1.63;0.73;;;9.10;62.50;;;;;;5050510;28;20414;-75
2023/01/17 11:21:20;;;;;;;1.50;0.83;;;10.20;63.00;;;;;;5048855;28;20451;-76
2023/01/17 11:23:57;;;;;;;0.80;0.60;;;11.20;59.00;;;;;;5050330;28;20425;-76
2023/01/17 11:26:26;;;;;;;1.40;0.70;;;11.80;57.00;;;;;;5050194;28;20426;-76
2023/01/17 11:29:11;;;;;;;1.20;0.80;;;11.30;56.00;;;;;;5050169;28;20433;-76
2023/01/17 11:31:37;;;;;;;1.23;0.77;;;11.20;57.50;;;;;;5050432;28;20813;-76
2023/01/17 11:34:28;;;;;;;2.00;1.00;;;11.10;56.70;;;;;;5049686;28;20420;-75
2023/01/17 11:37:17;;;;;;;2.23;0.90;;;10.90;57.00;;;;;;5044823;28;20588;-76
2023/01/17 11:39:46;;;;;;;3.37;1.73;;;10.50;57.80;;;;;;5031424;28;20434;-75
2023/01/17 11:42:32;;;;;;;2.67;1.53;;;10.30;58.60;;;;;;5049646;28;20436;-75
2023/01/17 11:45:35;;;;;;;3.77;2.10;;;9.10;58.00;;;;;;5049677;28;20997;-74
2023/01/17 11:48:07;;;;;;;4.13;2.60;;;8.70;61.30;;;;;;4978046;28;20428;-73
2023/01/17 11:50:36;;;;;;;9.43;3.90;;;8.60;63.20;;;;;;5040914;28;20440;-73
2023/01/17 11:53:22;;;;;;;3.00;1.40;;;8.40;63.10;;;;;;5049303;28;20906;-75
2023/01/17 11:56:17;;;;;;;1.10;0.90;;;8.10;62.80;;;;;;5049701;28;20510;-74
2023/01/17 11:58:44;;;;;;;3.17;2.10;;;8.00;64.00;;;;;;5049520;28;20398;-73
2023/01/17 12:01:22;;;;;;;1.10;0.80;;;8.00;64.80;;;;;;5048965;28;20706;-73
2023/01/17 12:04:15;;;;;;;0.90;0.60;;;7.80;64.80;;;;;;5049474;28;20410;-74
2023/01/17 12:06:58;;;;;;;2.40;0.70;;;7.50;63.40;;;;;;5049250;28;20422;-73
2023/01/17 12:09:36;;;;;;;2.10;1.20;;;7.10;65.40;;;;;;5047791;28;20407;-72
2023/01/17 12:15:28;;;;;;;1.67;1.20;;;6.90;67.00;;;;;;5049206;28;20409;-73
2023/01/17 12:18:09;;;;;;;2.60;2.40;;;6.70;67.60;;;;;;5049276;28;20947;-73
2023/01/17 12:20:48;;;;;;;2.90;1.67;;;6.40;68.10;;;;;;5049150;28;20426;-74
2023/01/17 12:23:43;;;;;;;3.70;2.00;;;6.20;69.20;;;;;;5049567;28;20430;-73
2023/01/17 12:26:09;;;;;;;5.07;1.73;;;6.10;71.60;;;;;;5049560;28;20518;-74
2023/01/17 12:28:55;;;;;;;10.37;5.77;;;6.00;69.80;;;;;;5049798;28;20505;-74
2023/01/17 12:31:41;;;;;;;4.47;2.50;;;5.80;71.00;;;;;;5049174;28;21026;-73
2023/01/17 12:34:21;;;;;;;0.80;0.80;;;5.60;68.80;;;;;;5049490;28;20409;-74
2023/01/17 12:36:53;;;;;;;1.00;0.90;;;5.50;68.30;;;;;;5049223;28;20453;-74
2023/01/17 12:39:24;;;;;;;1.20;1.10;;;5.40;68.90;;;;;;5049193;28;20386;-73
2023/01/17 12:42:04;;;;;;;0.80;0.50;;;5.30;68.20;;;;;;5049228;28;20947;-73
2023/01/17 12:44:56;;;;;;;1.00;0.80;;;5.10;68.10;;;;;;5049076;28;20394;-73
2023/01/17 12:47:23;;;;;;;0.90;0.70;;;5.20;70.20;;;;;;5047717;28;20415;-73
2023/01/17 12:50:37;;;;;;;1.53;0.90;;;5.20;69.70;;;;;;5049455;28;20467;-74
2023/01/17 12:53:25;;;;;;;7.00;2.40;;;5.10;69.70;;;;;;5011118;28;20432;-74
2023/01/17 12:56:26;;;;;;;5.80;2.93;;;5.10;70.80;;;;;;5048660;28;20469;-74
2023/01/17 12:58:59;;;;;;;2.30;1.53;;;5.00;70.70;;;;;;5048911;28;21267;-73
2023/01/17 13:01:29;;;;;;;1.00;0.77;;;5.00;72.00;;;;;;5048592;28;20449;-74
2023/01/17 13:04:02;;;;;;;1.33;1.20;;;5.10;71.30;;;;;;5048746;28;20945;-74
2023/01/17 13:06:44;;;;;;;1.10;0.93;;;4.90;71.10;;;;;;5048922;28;20445;-73
2023/01/17 13:09:18;;;;;;;1.97;0.80;;;4.90;71.50;;;;;;5047287;28;20418;-73
2023/01/17 13:11:55;;;;;;;2.60;0.90;;;5.00;72.50;;;;;;5048434;28;20459;-73
2023/01/17 13:14:21;;;;;;;4.23;0.90;;;4.90;72.90;;;;;;5047654;28;20461;-74
2023/01/17 13:17:08;;;;;;;1.63;0.90;;;5.00;72.30;;;;;;5048319;28;20512;-75
2023/01/17 13:19:54;;;;;;;2.00;1.47;;;5.00;72.90;;;;;;5048329;28;20166;-73
2023/01/17 13:22:22;;;;;;;1.13;0.80;;;5.00;72.00;;;;;;5047631;28;20449;-73
2023/01/17 13:24:57;;;;;;;1.67;1.23;;;4.80;71.10;;;;;;5048184;28;20786;-73
2023/01/17 13:27:31;;;;;;;6.23;0.80;;;4.80;72.40;;;;;;5048472;28;20400;-75
2023/01/17 13:30:14;;;;;;;3.67;1.45;;;4.90;73.50;;;;;;5046859;28;20887;-74
2023/01/17 13:33:10;;;;;;;2.50;1.30;;;4.70;70.10;;;;;;5048643;28;20236;-74
2023/01/17 13:35:49;;;;;;;1.87;1.10;;;4.50;70.70;;;;;;5048621;28;20988;-73
2023/01/17 13:38:24;;;;;;;2.83;1.50;;;4.50;71.50;;;;;;5048901;28;20390;-72
2023/01/17 13:41:15;;;;;;;4.93;2.65;;;4.60;72.30;;;;;;5049100;28;20437;-73
2023/01/17 13:44:20;;;;;;;6.03;3.63;;;4.50;72.10;;;;;;5049012;28;20206;-73
2023/01/17 13:46:59;;;;;;;6.43;3.13;;;4.60;72.10;;;;;;5048917;28;20198;-74
2023/01/17 13:49:28;;;;;;;4.07;2.60;;;4.40;71.40;;;;;;5048937;28;20418;-73
2023/01/17 13:52:10;;;;;;;8.43;3.23;;;4.30;71.80;;;;;;5048745;28;20823;-74
2023/01/17 13:55:06;;;;;;;6.00;4.13;;;4.20;70.80;;;;;;5048968;28;20429;-74
2023/01/17 13:57:45;;;;;;;3.45;2.22;;;4.30;71.60;;;;;;5039629;28;20941;-75
2023/01/17 14:00:31;;;;;;;6.70;1.63;;;4.20;71.90;;;;;;5032119;28;20301;-73
2023/01/17 14:02:57;;;;;;;3.00;2.00;;;4.30;72.00;;;;;;5048937;28;21002;-73
2023/01/17 14:05:28;;;;;;;4.70;2.93;;;4.10;72.30;;;;;;5048939;28;20236;-74
2023/01/17 14:07:56;;;;;;;2.75;1.67;;;4.00;73.40;;;;;;5048593;28;20271;-73
2023/01/17 14:10:45;;;;;;;1.97;1.40;;;4.00;74.00;;;;;;5048771;28;20879;-72
2023/01/17 14:13:37;;;;;;;8.40;3.27;;;4.10;74.60;;;;;;5048399;28;20914;-74
2023/01/17 14:16:30;;;;;;;7.50;2.03;;;4.20;73.20;;;;;;5048356;28;20808;-73
2023/01/17 14:18:55;;;;;;;3.33;2.00;;;4.20;72.90;;;;;;5048363;28;20186;-73
2023/01/17 14:21:24;;;;;;;7.30;2.20;;;4.20;72.70;;;;;;5048018;28;20436;-73
2023/01/17 14:23:54;;;;;;;4.60;2.63;;;4.10;72.40;;;;;;5048348;28;20181;-73
2023/01/17 14:26:33;;;;;;;4.30;1.80;;;4.10;73.90;;;;;;5051818;28;20175;-73
2023/01/17 14:29:37;;;;;;;3.80;2.93;;;4.10;74.20;;;;;;5051938;28;20424;-75
2023/01/17 14:32:07;;;;;;;4.47;2.50;;;4.10;73.30;;;;;;5051488;28;20961;-75
2023/01/17 14:34:33;;;;;;;4.50;2.70;;;3.90;70.60;;;;;;5052108;28;20394;-73
2023/01/17 14:37:17;;;;;;;4.80;2.43;;;4.00;73.40;;;;;;5051129;28;20288;-76
2023/01/17 14:39:45;;;;;;;2.83;1.85;;;4.10;72.80;;;;;;5051187;28;20451;-74
2023/01/17 14:42:22;;;;;;;3.53;2.20;;;4.10;72.30;;;;;;5051165;28;20311;-75
2023/01/17 14:45:08;;;;;;;8.40;2.22;;;4.10;71.40;;;;;;5049896;28;20424;-75